Time;durP1;ratioP1;P1;durP2;ratioP2;P2;SDS_P1;SDS_P2;PMS_P1;PMS_P2;Temp;Humidity;BMP_temperature;BMP_pressure;BME280_temperature;BME280_humidity;BME280_pressure;Samples;Min_cycle;Max_cycle;Signal;HPM_P1;HPM_P2
2022/12/05 00:00:53;;;;;;;;;;;;;;;27.89;42.64;97977.50;608029;233;66726;-70
2022/12/05 00:03:21;;;;;;;;;;;;;;;27.89;41.54;97977.50;608055;233;65133;-69
2022/12/05 00:05:48;;;;;;;;;;;;;;;27.87;42.88;97979.69;608012;233;68813;-69
2022/12/05 00:08:16;;;;;;;;;;;;;;;27.87;41.37;97979.69;608071;233;68715;-64
2022/12/05 00:10:44;;;;;;;;;;;;;;;27.86;42.53;97975.39;608037;233;63844;-64
2022/12/05 00:13:12;;;;;;;;;;;;;;;27.86;42.00;97982.70;608069;233;66707;-65
2022/12/05 00:15:40;;;;;;;;;;;;;;;27.84;43.28;97982.98;608021;233;68787;-64
2022/12/05 00:18:07;;;;;;;;;;;;;;;27.83;43.88;97984.08;608007;233;65093;-69
2022/12/05 00:20:35;;;;;;;;;;;;;;;27.83;43.27;97992.19;608039;232;68927;-69
2022/12/05 00:23:02;;;;;;;;;;;;;;;27.82;42.17;97981.66;608105;233;68377;-69
2022/12/05 00:25:30;;;;;;;;;;;;;;;27.81;42.68;97983.56;608472;232;65275;-65
2022/12/05 00:27:57;;;;;;;;;;;;;;;27.79;43.17;97977.61;610043;232;68815;-64
2022/12/05 00:30:25;;;;;;;;;;;;;;;27.80;43.28;97970.34;610016;232;69068;-64
2022/12/05 00:32:52;;;;;;;;;;;;;;;27.79;43.52;97971.41;609988;232;65008;-64
2022/12/05 00:35:20;;;;;;;;;;;;;;;27.78;42.63;97975.22;610098;232;66606;-65
2022/12/05 00:37:47;;;;;;;;;;;;;;;27.77;42.41;97973.59;610052;232;66724;-64
2022/12/05 00:40:15;;;;;;;;;;;;;;;27.77;42.13;97973.59;610037;232;64999;-64
2022/12/05 00:42:42;;;;;;;;;;;;;;;27.76;42.56;97975.50;610029;232;66394;-65
2022/12/05 00:45:10;;;;;;;;;;;;;;;27.76;42.82;97977.41;610019;232;68339;-64
2022/12/05 00:47:38;;;;;;;;;;;;;;;27.74;42.12;97979.59;610094;232;65048;-64
2022/12/05 00:50:06;;;;;;;;;;;;;;;27.74;43.09;97987.69;610014;232;68400;-65
2022/12/05 00:52:33;;;;;;;;;;;;;;;27.73;43.07;97988.80;610008;232;68805;-64
2022/12/05 00:55:01;;;;;;;;;;;;;;;27.72;41.91;97987.17;610020;232;65068;-64
2022/12/05 00:57:28;;;;;;;;;;;;;;;27.72;44.14;97982.59;610022;232;69015;-64
2022/12/05 00:59:56;;;;;;;;;;;;;;;27.70;41.83;97992.08;610047;232;66607;-65
2022/12/05 01:02:23;;;;;;;;;;;;;;;27.70;43.78;97983.98;610035;232;63056;-64
2022/12/05 01:04:51;;;;;;;;;;;;;;;27.68;42.27;97984.26;610015;232;66632;-64
2022/12/05 01:07:18;;;;;;;;;;;;;;;27.66;43.06;97981.87;610028;232;66604;-64
2022/12/05 01:09:46;;;;;;;;;;;;;;;27.66;42.60;97983.73;610030;232;62983;-64
2022/12/05 01:12:13;;;;;;;;;;;;;;;27.64;43.37;97975.95;610087;232;68328;-64
2022/12/05 01:14:40;;;;;;;;;;;;;;;27.64;43.18;97975.15;610025;232;68453;-64
2022/12/05 01:17:09;;;;;;;;;;;;;;;27.63;42.13;97968.13;610045;232;65020;-64
2022/12/05 01:19:37;;;;;;;;;;;;;;;27.61;43.86;97964.91;610012;232;66262;-64
2022/12/05 01:22:04;;;;;;;;;;;;;;;27.61;42.37;97964.91;610045;232;68482;-64
2022/12/05 01:24:31;;;;;;;;;;;;;;;27.59;43.05;97959.81;610065;232;65179;-64
2022/12/05 01:26:59;;;;;;;;;;;;;;;27.59;42.64;97965.22;608294;232;68645;-64
2022/12/05 01:29:26;;;;;;;;;;;;;;;27.58;41.92;97966.31;608046;233;66348;-65
2022/12/05 01:31:54;;;;;;;;;;;;;;;27.56;43.12;97957.70;608057;233;62651;-70
2022/12/05 01:34:22;;;;;;;;;;;;;;;27.55;43.14;97956.08;608022;233;66380;-69
2022/12/05 01:36:49;;;;;;;;;;;;;;;27.56;42.59;97955.00;608076;233;66460;-64
2022/12/05 01:39:17;;;;;;;;;;;;;;;27.52;42.18;97945.86;608068;233;65062;-64
2022/12/05 01:41:46;;;;;;;;;;;;;;;27.52;41.30;97955.86;608013;233;70283;-64
2022/12/05 01:44:15;;;;;;;;;;;;;;;27.52;43.79;97945.86;608021;233;67002;-64
2022/12/05 01:46:47;;;;;;;;;;;;;;;27.51;43.54;97951.57;608040;233;63045;-65
2022/12/05 01:49:26;;;;;;;;;;;;;;;27.50;42.25;97952.64;608008;233;66699;-65
2022/12/05 01:51:55;;;;;;;;;;;;;;;27.48;42.17;97946.75;608048;233;66553;-64
2022/12/05 01:54:22;;;;;;;;;;;;;;;27.46;41.93;97947.03;608041;233;65056;-64
2022/12/05 01:56:51;;;;;;;;;;;;;;;27.46;41.42;97947.03;608020;233;68907;-64
2022/12/05 01:59:20;;;;;;;;;;;;;;;27.45;41.10;97950.84;608027;233;66533;-64
2022/12/05 02:01:48;;;;;;;;;;;;;;;27.43;42.62;97950.31;608074;233;65073;-64
2022/12/05 02:04:16;;;;;;;;;;;;;;;27.42;44.66;97943.33;607991;233;68586;-64
2022/12/05 02:06:44;;;;;;;;;;;;;;;27.40;42.33;97940.11;608051;233;66536;-64
2022/12/05 02:09:11;;;;;;;;;;;;;;;27.39;41.75;97935.78;607995;233;65709;-64
2022/12/05 02:11:40;;;;;;;;;;;;;;;27.38;41.87;97940.38;608021;233;68987;-64
2022/12/05 02:14:12;;;;;;;;;;;;;;;27.37;41.75;97938.78;607906;232;68543;-64
2022/12/05 02:16:41;;;;;;;;;;;;;;;27.36;42.29;97929.06;607914;233;65137;-64
2022/12/05 02:19:19;;;;;;;;;;;;;;;27.36;43.73;97933.67;607992;233;65512;-64
2022/12/05 02:21:48;;;;;;;;;;;;;;;27.34;42.40;97927.78;607845;233;66523;-63
2022/12/05 02:24:17;;;;;;;;;;;;;;;27.33;42.08;97918.86;607833;233;63028;-63
2022/12/05 02:26:49;;;;;;;;;;;;;;;27.32;43.64;97927.27;609549;232;68741;-63
2022/12/05 02:29:18;;;;;;;;;;;;;;;27.32;42.86;97929.95;609937;232;66680;-63
2022/12/05 02:31:47;;;;;;;;;;;;;;;27.31;42.33;97931.03;609994;232;66450;-63
2022/12/05 02:34:20;;;;;;;;;;;;;;;27.30;41.73;97929.44;610003;232;68833;-63
2022/12/05 02:36:49;;;;;;;;;;;;;;;27.28;41.86;97923.52;610002;232;68583;-63
2022/12/05 02:39:33;;;;;;;;;;;;;;;27.28;41.79;97923.52;609585;232;65129;-63
2022/12/05 02:42:11;;;;;;;;;;;;;;;27.25;41.91;97919.50;610007;232;68849;-63
2022/12/05 02:44:49;;;;;;;;;;;;;;;27.23;41.44;97917.11;609942;232;66670;-63
2022/12/05 02:47:18;;;;;;;;;;;;;;;27.23;43.97;97922.51;609999;232;65091;-63
2022/12/05 02:49:47;;;;;;;;;;;;;;;27.21;43.22;97921.98;610088;232;69056;-63
2022/12/05 02:52:16;;;;;;;;;;;;;;;27.20;42.35;97923.09;610009;232;66384;-68
2022/12/05 02:54:45;;;;;;;;;;;;;;;27.19;43.38;97926.86;610057;232;65034;-69
2022/12/05 02:57:13;;;;;;;;;;;;;;;27.18;41.82;97927.97;610060;232;66714;-69
2022/12/05 02:59:40;;;;;;;;;;;;;;;27.16;42.33;97923.92;610008;232;67087;-69
2022/12/05 03:02:09;;;;;;;;;;;;;;;27.15;43.67;97915.03;610057;232;65173;-69
2022/12/05 03:04:37;;;;;;;;;;;;;;;27.14;42.04;97923.40;610094;232;68801;-68
2022/12/05 03:07:06;;;;;;;;;;;;;;;27.13;43.91;97917.20;610008;232;68625;-69
2022/12/05 03:09:35;;;;;;;;;;;;;;;27.12;45.07;97915.61;610003;232;65190;-69
2022/12/05 03:12:05;;;;;;;;;;;;;;;27.10;42.51;97916.99;610011;232;69269;-70
2022/12/05 03:14:34;;;;;;;;;;;;;;;27.09;43.63;97916.19;609659;232;66787;-70
2022/12/05 03:17:03;;;;;;;;;;;;;;;27.08;43.92;97917.27;610133;232;62952;-70
2022/12/05 03:19:39;;;;;;;;;;;;;;;27.07;43.57;97926.47;610000;232;66388;-69
2022/12/05 03:22:07;;;;;;;;;;;;;;;27.07;43.70;97923.77;609847;232;66687;-70
2022/12/05 03:24:37;;;;;;;;;;;;;;;27.06;44.28;97932.13;610000;232;63130;-70
2022/12/05 03:27:15;;;;;;;;;;;;;;;27.04;43.74;97934.31;609988;232;68995;-69
2022/12/05 03:29:44;;;;;;;;;;;;;;;27.03;42.93;97936.21;610041;232;66487;-69
2022/12/05 03:32:13;;;;;;;;;;;;;;;27.02;43.28;97926.52;610016;232;65103;-69
2022/12/05 03:34:45;;;;;;;;;;;;;;;27.01;43.40;97927.63;608928;232;68793;-69
2022/12/05 03:37:14;;;;;;;;;;;;;;;26.99;42.58;97927.10;610047;232;68692;-70
2022/12/05 03:39:43;;;;;;;;;;;;;;;26.97;43.84;97934.67;609878;232;65064;-70
2022/12/05 03:42:12;;;;;;;;;;;;;;;26.97;45.70;97930.08;610065;232;68787;-70
2022/12/05 03:44:54;;;;;;;;;;;;;;;26.95;47.04;97924.16;610051;232;68878;-70
2022/12/05 03:47:23;;;;;;;;;;;;;;;26.94;44.46;97924.46;610028;232;65136;-69
2022/12/05 03:49:53;;;;;;;;;;;;;;;26.93;43.14;97933.66;609968;232;69684;-69
2022/12/05 03:52:31;;;;;;;;;;;;;;;26.90;43.49;97924.25;609965;232;73632;-69
2022/12/05 03:55:03;;;;;;;;;;;;;;;26.90;42.28;97936.91;610010;232;64319;-63
2022/12/05 03:57:35;;;;;;;;;;;;;;;26.89;46.33;97927.22;610032;232;68774;-63
2022/12/05 04:00:04;;;;;;;;;;;;;;;26.88;44.36;97925.62;609989;232;66562;-64
2022/12/05 04:02:33;;;;;;;;;;;;;;;26.87;46.75;97924.00;610061;232;64546;-63
2022/12/05 04:05:02;;;;;;;;;;;;;;;26.84;43.74;97924.58;610048;232;66662;-69
2022/12/05 04:07:31;;;;;;;;;;;;;;;26.85;44.50;97926.20;610032;232;68435;-69
2022/12/05 04:10:00;;;;;;;;;;;;;;;26.82;42.93;97927.58;610032;232;63013;-69
2022/12/05 04:12:29;;;;;;;;;;;;;;;26.81;44.68;97931.34;610027;232;66631;-69
2022/12/05 04:14:58;;;;;;;;;;;;;;;26.81;44.52;97925.16;610065;232;66499;-69
2022/12/05 04:17:27;;;;;;;;;;;;;;;26.79;45.35;97922.73;610025;232;65035;-69
2022/12/05 04:22:45;;;;;;;;;;;;;;;26.77;46.13;97916.84;610039;232;66723;-69
2022/12/05 04:25:32;;;;;;;;;;;;;;;26.76;45.73;97926.83;609974;232;63090;-69
2022/12/05 04:28:02;;;;;;;;;;;;;;;26.73;44.42;97921.98;610036;232;66765;-70
2022/12/05 04:30:33;;;;;;;;;;;;;;;26.73;46.27;97916.59;610030;232;66567;-70
2022/12/05 04:33:02;;;;;;;;;;;;;;;26.71;46.79;97913.40;610051;232;63801;-71
2022/12/05 04:35:31;;;;;;;;;;;;;;;26.70;46.76;97911.77;610046;232;68521;-71
2022/12/05 04:38:00;;;;;;;;;;;;;;;26.68;45.08;97915.84;609952;232;68571;-71
2022/12/05 04:40:29;;;;;;;;;;;;;;;26.68;45.21;97922.06;609968;232;62822;-71
2022/12/05 04:42:58;;;;;;;;;;;;;;;26.67;45.94;97928.53;610014;232;69007;-71
2022/12/05 04:45:26;;;;;;;;;;;;;;;26.66;45.83;97934.22;610097;232;68641;-69
2022/12/05 04:47:58;;;;;;;;;;;;;;;26.64;47.11;97931.80;610018;232;65034;-69
2022/12/05 04:50:27;;;;;;;;;;;;;;;26.63;46.49;97935.59;610031;232;66522;-70
2022/12/05 04:52:56;;;;;;;;;;;;;;;26.62;44.93;97933.97;610021;232;68597;-70
2022/12/05 04:55:28;;;;;;;;;;;;;;;26.62;45.77;97933.97;609990;232;65126;-70
2022/12/05 04:58:09;;;;;;;;;;;;;;;26.60;45.99;97929.95;610044;232;68771;-69
2022/12/05 05:00:38;;;;;;;;;;;;;;;26.59;46.48;97926.45;610054;232;68610;-70
2022/12/05 05:03:26;;;;;;;;;;;;;;;26.56;43.88;97927.83;609591;232;65079;-70
2022/12/05 05:05:55;;;;;;;;;;;;;;;26.55;46.77;97928.93;609987;232;68786;-69
2022/12/05 05:08:24;;;;;;;;;;;;;;;26.55;46.80;97936.22;610019;232;68671;-69
2022/12/05 05:11:05;;;;;;;;;;;;;;;26.52;44.74;97932.20;610033;232;65077;-69
2022/12/05 05:13:33;;;;;;;;;;;;;;;26.52;44.69;97934.09;609819;232;67820;-70
2022/12/05 05:16:00;;;;;;;;;;;;;;;26.52;46.23;97937.59;610069;232;68620;-69
2022/12/05 05:18:28;;;;;;;;;;;;;;;26.50;47.00;97933.55;610006;232;65050;-69
2022/12/05 05:20:55;;;;;;;;;;;;;;;26.48;45.37;97935.71;610037;232;68785;-70
2022/12/05 05:23:23;;;;;;;;;;;;;;;26.49;46.98;97942.70;610044;232;68261;-69
2022/12/05 05:25:56;;;;;;;;;;;;;;;26.47;45.60;97939.50;609249;232;65130;-69
2022/12/05 05:28:24;;;;;;;;;;;;;;;26.47;45.89;97943.00;608045;233;68513;-69
2022/12/05 05:30:51;;;;;;;;;;;;;;;26.46;45.08;97952.16;608088;233;68934;-69
2022/12/05 05:33:18;;;;;;;;;;;;;;;26.46;44.40;97945.97;608048;233;65077;-69
2022/12/05 05:35:46;;;;;;;;;;;;;;;26.46;46.17;97951.36;608063;233;68561;-69
2022/12/05 05:38:13;;;;;;;;;;;;;;;26.48;46.26;97949.19;608048;233;68448;-69
2022/12/05 05:40:43;;;;;;;;;;;;;;;26.48;46.29;97949.19;608092;233;46340;-69
2022/12/05 05:43:10;;;;;;;;;;;;;;;26.48;47.33;97949.98;608078;233;68474;-69
2022/12/05 05:45:38;;;;;;;;;;;;;;;26.50;44.01;97955.11;607937;233;68840;-69
2022/12/05 05:48:05;;;;;;;;;;;;;;;26.50;45.06;97960.50;608057;233;65072;-69
2022/12/05 05:50:33;;;;;;;;;;;;;;;26.52;45.99;97959.16;608032;233;68588;-69
2022/12/05 05:53:00;;;;;;;;;;;;;;;26.54;44.50;97954.27;608057;233;66690;-69
2022/12/05 05:55:28;;;;;;;;;;;;;;;26.56;44.12;97957.48;608002;233;62959;-69
2022/12/05 05:57:55;;;;;;;;;;;;;;;26.58;42.57;97964.50;608011;233;66932;-69
2022/12/05 06:00:23;;;;;;;;;;;;;;;26.61;44.74;97953.95;608033;233;68653;-69
2022/12/05 06:02:50;;;;;;;;;;;;;;;26.63;42.50;97959.86;608007;233;65067;-69
2022/12/05 06:05:18;;;;;;;;;;;;;;;26.65;43.58;97965.75;608013;233;66674;-69
2022/12/05 06:07:45;;;;;;;;;;;;;;;26.67;43.10;97965.48;608075;233;66729;-69
2022/12/05 06:10:13;;;;;;;;;;;;;;;26.69;43.93;97964.11;608006;233;65299;-69
2022/12/05 06:12:40;;;;;;;;;;;;;;;26.71;44.45;97955.72;608049;233;68808;-69
2022/12/05 06:15:08;;;;;;;;;;;;;;;26.73;45.16;97958.94;608029;233;68705;-69
2022/12/05 06:17:35;;;;;;;;;;;;;;;26.75;44.74;97973.74;608010;233;65090;-69
2022/12/05 06:20:04;;;;;;;;;;;;;;;26.76;43.29;97967.28;608065;233;69044;-69
2022/12/05 06:22:31;;;;;;;;;;;;;;;26.79;45.22;97969.41;607973;233;68707;-69
2022/12/05 06:24:59;;;;;;;;;;;;;;;26.81;42.77;97971.00;608008;232;64910;-68
2022/12/05 06:27:28;;;;;;;;;;;;;;;26.84;43.01;97978.52;610015;232;68790;-69
2022/12/05 06:29:56;;;;;;;;;;;;;;;26.88;44.68;97976.86;609997;232;66632;-69
2022/12/05 06:32:23;;;;;;;;;;;;;;;26.89;44.23;97986.55;610064;232;62912;-69
2022/12/05 06:34:51;;;;;;;;;;;;;;;26.92;44.81;97988.67;610005;232;66680;-69
2022/12/05 06:37:18;;;;;;;;;;;;;;;26.96;44.99;97992.42;610013;232;68447;-69
2022/12/05 06:39:46;;;;;;;;;;;;;;;26.97;44.27;97991.31;610020;232;64997;-69
2022/12/05 06:42:13;;;;;;;;;;;;;;;27.00;44.15;97998.83;610040;232;68720;-69
2022/12/05 06:44:41;;;;;;;;;;;;;;;27.02;43.77;97993.97;610016;232;66932;-69
2022/12/05 06:47:08;;;;;;;;;;;;;;;27.04;43.86;97996.36;610014;232;62947;-69
2022/12/05 06:49:36;;;;;;;;;;;;;;;27.06;42.99;97992.28;609986;232;68936;-70
2022/12/05 06:52:03;;;;;;;;;;;;;;;27.08;43.64;97995.51;609935;232;68749;-69
2022/12/05 06:54:31;;;;;;;;;;;;;;;27.11;43.27;98004.92;609887;232;63044;-69
2022/12/05 06:56:58;;;;;;;;;;;;;;;27.13;43.57;98003.55;610033;232;68880;-69
2022/12/05 06:59:26;;;;;;;;;;;;;;;27.15;44.39;98005.97;609811;232;68700;-68
2022/12/05 07:01:53;;;;;;;;;;;;;;;27.17;43.91;98015.42;609919;232;64867;-68
2022/12/05 07:04:25;;;;;;;;;;;;;;;27.20;41.76;98014.84;609947;232;66396;-71
2022/12/05 07:06:54;;;;;;;;;;;;;;;27.22;43.72;98020.73;610012;232;66652;-68
2022/12/05 07:09:44;;;;;;;;;;;;;;;27.24;42.91;98015.06;609983;232;65164;-70
2022/12/05 07:11:52;;;;;;;;;;;;;;;27.26;43.19;98012.09;609023;232;69208;-70
2022/12/05 07:14:19;;;;;;;;;;;;;;;27.29;43.33;98015.00;609975;232;68642;-71
2022/12/05 07:16:47;;;;;;;;;;;;;;;27.32;42.64;98021.72;612454;230;65078;-70
2022/12/05 07:19:14;;;;;;;;;;;;;;;27.34;43.53;98019.55;614954;230;68824;-70
2022/12/05 07:21:42;;;;;;;;;;;;;;;27.34;43.45;98019.55;614930;230;68779;-70
2022/12/05 07:24:10;;;;;;;;;;;;;;;27.36;42.58;98018.14;614784;230;65145;-69
2022/12/05 07:26:37;;;;;;;;;;;;;;;27.37;42.56;98018.97;614050;229;68799;-69
2022/12/05 07:29:05;;;;;;;;;;;;;;;27.40;40.59;98021.88;613668;231;66545;-70
2022/12/05 07:31:32;;;;;;;;;;;;;;;27.43;41.16;98025.91;613519;231;65005;-71
2022/12/05 07:34:00;;;;;;;;;;;;;;;27.44;41.76;98020.20;613616;231;66906;-70
2022/12/05 07:36:28;;;;;;;;;;;;;;;27.47;43.95;98023.42;613684;231;66616;-70
2022/12/05 07:38:56;;;;;;;;;;;;;;;27.47;44.24;98029.61;613505;231;63086;-70
2022/12/05 07:41:25;;;;;;;;;;;;;;;27.49;43.40;98015.84;610849;230;68819;-70
2022/12/05 07:43:54;;;;;;;;;;;;;;;27.51;41.80;98021.77;610497;230;68716;-70
2022/12/05 07:46:23;;;;;;;;;;;;;;;27.53;42.92;98016.86;612121;230;65151;-70
2022/12/05 07:48:51;;;;;;;;;;;;;;;27.55;43.06;98020.88;613667;231;68814;-69
2022/12/05 07:51:18;;;;;;;;;;;;;;;27.57;42.76;98017.89;613658;231;68487;-64
2022/12/05 07:53:46;;;;;;;;;;;;;;;27.58;41.83;98014.92;613603;231;65235;-63
2022/12/05 07:56:18;;;;;;;;;;;;;;;27.59;45.06;98015.72;613526;231;66680;-64
2022/12/05 07:58:47;;;;;;;;;;;;;;;27.62;39.15;98007.03;613593;231;69112;-62
2022/12/05 08:01:16;;;;;;;;;;;;;;;27.66;38.23;98008.88;613625;231;65066;-64
2022/12/05 08:03:44;;;;;;;;;;;;;;;27.69;36.80;97996.66;613715;231;68712;-64
2022/12/05 08:06:13;;;;;;;;;;;;;;;27.73;37.58;98005.00;613630;231;68787;-66
2022/12/05 08:08:40;;;;;;;;;;;;;;;27.76;38.30;98013.31;613697;231;65289;-65
2022/12/05 08:11:15;;;;;;;;;;;;;;;27.78;39.49;98015.73;613641;231;68779;-65
2022/12/05 08:13:43;;;;;;;;;;;;;;;27.79;39.61;98010.02;613625;231;68711;-65
2022/12/05 08:16:13;;;;;;;;;;;;;;;27.82;39.16;98016.77;613664;231;65087;-65
2022/12/05 08:18:40;;;;;;;;;;;;;;;27.83;38.97;98011.09;613682;231;66437;-65
2022/12/05 08:21:09;;;;;;;;;;;;;;;27.85;39.51;98021.59;613588;231;66643;-64
2022/12/05 08:23:37;;;;;;;;;;;;;;;27.87;39.14;98019.41;613579;231;65038;-61
2022/12/05 08:26:09;;;;;;;;;;;;;;;27.88;37.00;98019.13;616784;228;69046;-61
2022/12/05 08:28:36;;;;;;;;;;;;;;;27.86;39.20;98020.52;620404;228;66617;-64
2022/12/05 08:31:09;;;;;;;;;;;;;;;27.84;40.41;98014.59;620501;228;62824;-63
2022/12/05 08:33:36;;;;;;;;;;;;;;;27.82;43.64;98008.67;620125;228;68724;-63
2022/12/05 08:36:05;;;;;;;;;;;;;;;27.80;43.99;98002.75;620359;228;68661;-64
2022/12/05 08:38:33;;;;;;;;;;;;;;;27.79;43.36;98003.83;620440;228;65067;-64
2022/12/05 08:41:01;;;;;;;;;;;;;;;27.79;42.09;98006.53;620434;228;68804;-67
2022/12/05 08:43:29;;;;;;;;;;;;;;;27.80;41.99;98008.15;620360;228;66731;-65
2022/12/05 08:45:57;;;;;;;;;;;;;;;27.78;42.70;98013.03;620487;228;62966;-64
2022/12/05 08:48:27;;;;;;;;;;;;;;;27.78;43.26;97996.83;620375;228;47693;-65
2022/12/05 08:50:55;;;;;;;;;;;;;;;27.78;42.30;98003.03;620418;228;68575;-64
2022/12/05 08:53:23;;;;;;;;;;;;;;;27.78;42.42;97997.63;620423;228;62992;-65
2022/12/05 08:55:50;;;;;;;;;;;;;;;27.78;42.49;97992.23;620379;228;69033;-64
2022/12/05 08:58:18;;;;;;;;;;;;;;;27.77;41.91;97998.70;620487;228;68696;-64
2022/12/05 09:00:47;;;;;;;;;;;;;;;27.78;42.62;97997.63;620425;228;64881;-66
2022/12/05 09:03:14;;;;;;;;;;;;;;;27.77;43.52;97990.60;620222;228;66363;-64
2022/12/05 09:05:42;;;;;;;;;;;;;;;27.77;42.53;97996.00;620440;228;66282;-64
2022/12/05 09:08:09;;;;;;;;;;;;;;;27.77;42.31;97984.40;620412;228;62932;-65
2022/12/05 09:10:37;;;;;;;;;;;;;;;27.77;40.55;97981.70;620421;228;68789;-65
2022/12/05 09:13:05;;;;;;;;;;;;;;;27.77;42.36;97979.00;620435;228;68989;-63
2022/12/05 09:15:32;;;;;;;;;;;;;;;27.78;42.63;97972.52;620170;228;62931;-64
2022/12/05 09:18:00;;;;;;;;;;;;;;;27.78;43.51;97970.62;620233;228;66623;-65
2022/12/05 09:20:27;;;;;;;;;;;;;;;27.76;41.84;97967.40;620414;228;66574;-66
2022/12/05 09:22:55;;;;;;;;;;;;;;;27.76;43.23;97961.20;620397;228;62887;-66
2022/12/05 09:25:22;;;;;;;;;;;;;;;27.77;42.94;97957.39;620177;228;68936;-66
2022/12/05 09:27:49;;;;;;;;;;;;;;;27.78;42.17;97953.61;619902;228;68443;-66
2022/12/05 09:30:17;;;;;;;;;;;;;;;27.77;43.00;97957.39;619960;228;65027;-66
2022/12/05 09:32:44;;;;;;;;;;;;;;;27.77;43.51;97971.69;619553;228;69528;-66
2022/12/05 09:35:12;;;;;;;;;;;;;;;27.77;42.28;97963.59;620422;228;66361;-65
2022/12/05 09:37:39;;;;;;;;;;;;;;;27.77;42.70;97962.80;620450;228;65003;-65
2022/12/05 09:40:08;;;;;;;;;;;;;;;27.77;41.80;97962.80;620433;228;68722;-64
2022/12/05 09:42:40;;;;;;;;;;;;;;;27.77;43.39;97949.29;620350;228;66482;-64
2022/12/05 09:45:24;;;;;;;;;;;;;;;27.77;42.08;97947.39;620032;228;65064;-64
2022/12/05 09:48:09;;;;;;;;;;;;;;;27.76;45.24;97947.70;620465;228;66309;-64
2022/12/05 09:50:38;;;;;;;;;;;;;;;27.77;43.15;97941.98;620116;228;68602;-67
2022/12/05 09:53:10;;;;;;;;;;;;;;;27.76;42.44;97948.49;620377;228;65118;-63
2022/12/05 09:55:39;;;;;;;;;;;;;;;27.76;44.15;97942.30;620417;228;66536;-67
2022/12/05 09:58:08;;;;;;;;;;;;;;;27.77;42.32;97939.28;620392;228;64776;-67
2022/12/05 10:00:36;;;;;;;;;;;;;;;27.76;42.41;97931.48;619989;228;63140;-66
2022/12/05 10:03:14;;;;;;;;;;;;;;;27.76;44.30;97926.09;620389;228;66743;-66
2022/12/05 10:05:43;;;;;;;;;;;;;;;27.75;42.65;97930.70;619594;228;68566;-65
2022/12/05 10:08:12;;;;;;;;;;;;;;;27.76;42.44;97932.29;607487;228;64637;-71
2022/12/05 10:10:44;;;;;;;;;;;;;;;27.77;44.03;97930.38;607947;228;68160;-69
2022/12/05 10:13:13;;;;;;;;;;;;;;;27.76;42.93;97923.39;619832;228;68906;-71
2022/12/05 10:15:46;;;;;;;;;;;;;;;27.75;42.41;97921.80;619957;228;65051;-68
2022/12/05 10:18:15;;;;;;;;;;;;;;;27.75;44.70;97927.20;620314;228;66521;-71
2022/12/05 10:20:44;;;;;;;;;;;;;;;27.75;44.18;97930.70;620115;228;66430;-71
2022/12/05 10:23:13;;;;;;;;;;;;;;;27.75;42.70;97924.50;620474;228;64595;-70
2022/12/05 10:25:42;;;;;;;;;;;;;;;27.74;42.44;97926.37;620337;228;68855;-70
2022/12/05 10:28:17;;;;;;;;;;;;;;;27.75;43.54;97933.39;617183;228;67011;-69
2022/12/05 10:30:45;;;;;;;;;;;;;;;27.72;43.05;97923.18;614074;228;63991;-71
2022/12/05 10:33:14;;;;;;;;;;;;;;;27.74;43.04;97925.57;613401;231;68841;-66
2022/12/05 10:35:42;;;;;;;;;;;;;;;27.72;43.93;97925.88;613274;231;68685;-67
2022/12/05 10:38:28;;;;;;;;;;;;;;;27.74;42.59;97914.77;613376;231;65011;-67
2022/12/05 10:40:57;;;;;;;;;;;;;;;27.73;44.22;97923.98;613269;231;68639;-65
2022/12/05 10:43:29;;;;;;;;;;;;;;;27.71;36.61;97920.77;613231;231;67147;-64
2022/12/05 10:45:56;;;;;;;;;;;;;;;27.76;41.22;97917.98;613121;231;62938;-66
2022/12/05 10:48:24;;;;;;;;;;;;;;;27.75;39.05;97911.79;613343;231;66318;-63
2022/12/05 10:50:53;;;;;;;;;;;;;;;27.77;38.54;97914.98;613297;231;66677;-64
2022/12/05 10:53:27;;;;;;;;;;;;;;;27.79;41.70;97909.30;613262;231;64884;-65
2022/12/05 10:55:54;;;;;;;;;;;;;;;27.78;41.58;97911.20;613255;231;66835;-70
2022/12/05 10:58:25;;;;;;;;;;;;;;;27.79;39.78;97903.89;613349;231;53342;-67
2022/12/05 11:00:55;;;;;;;;;;;;;;;27.78;41.75;97894.20;613348;231;63006;-68
2022/12/05 11:03:24;;;;;;;;;;;;;;;27.77;40.94;97898.77;613232;231;68923;-65
2022/12/05 11:05:53;;;;;;;;;;;;;;;27.77;41.99;97892.57;613353;231;68701;-65
2022/12/05 11:08:22;;;;;;;;;;;;;;;27.76;43.02;97890.98;613306;231;62743;-64
2022/12/05 11:10:51;;;;;;;;;;;;;;;27.77;41.27;97893.38;613232;231;68838;-67
2022/12/05 11:13:20;;;;;;;;;;;;;;;27.79;42.35;97893.09;613025;231;66690;-67
2022/12/05 11:15:48;;;;;;;;;;;;;;;27.79;41.13;97883.08;613072;231;63028;-66
2022/12/05 11:18:19;;;;;;;;;;;;;;;27.81;41.83;97891.73;611120;231;68816;-65
2022/12/05 11:20:47;;;;;;;;;;;;;;;27.78;42.21;97883.39;611947;231;68696;-66
2022/12/05 11:23:22;;;;;;;;;;;;;;;27.76;43.54;97875.57;612362;231;63005;-66
2022/12/05 11:25:50;;;;;;;;;;;;;;;27.75;43.39;97878.58;611181;231;68840;-66
2022/12/05 11:28:20;;;;;;;;;;;;;;;27.72;44.80;97874.57;609512;232;68695;-66
2022/12/05 11:30:58;;;;;;;;;;;;;;;27.71;42.61;97862.14;609504;232;65101;-66
2022/12/05 11:33:28;;;;;;;;;;;;;;;27.70;43.03;97865.95;609561;232;68897;-66
2022/12/05 11:35:57;;;;;;;;;;;;;;;27.68;42.82;97863.53;609967;232;68415;-67
2022/12/05 11:38:26;;;;;;;;;;;;;;;27.67;42.92;97864.64;609265;230;65005;-65
2022/12/05 11:41:12;;;;;;;;;;;;;;;27.68;42.27;97862.73;609746;232;66544;-64
2022/12/05 11:43:44;;;;;;;;;;;;;;;27.68;43.16;97863.53;609892;232;69046;-66
2022/12/05 11:46:22;;;;;;;;;;;;;;;27.68;43.45;97862.73;594495;238;65048;-66
2022/12/05 11:49:09;;;;;;;;;;;;;;;27.66;43.68;97854.13;594494;238;66591;-65
2022/12/05 11:51:38;;;;;;;;;;;;;;;27.67;42.69;97858.45;594302;238;68643;-65
2022/12/05 11:54:07;;;;;;;;;;;;;;;27.66;42.87;97860.34;594430;238;65967;-66
2022/12/05 11:56:37;;;;;;;;;;;;;;;27.66;44.86;97859.52;594519;238;68902;-65
2022/12/05 11:59:22;;;;;;;;;;;;;;;27.66;43.47;97862.22;594506;238;68700;-65
2022/12/05 12:01:53;;;;;;;;;;;;;;;27.66;43.75;97859.52;594469;238;63039;-66
2022/12/05 12:04:28;;;;;;;;;;;;;;;27.64;44.43;97854.44;594492;238;66335;-66
2022/12/05 12:07:00;;;;;;;;;;;;;;;27.64;43.87;97851.73;594299;238;66771;-65
2022/12/05 12:09:35;;;;;;;;;;;;;;;27.64;44.96;97846.33;593895;238;65014;-65
2022/12/05 12:12:04;;;;;;;;;;;;;;;27.64;44.29;97851.73;608772;230;66936;-66
2022/12/05 12:14:33;;;;;;;;;;;;;;;27.65;43.02;97839.03;611879;230;66655;-66
2022/12/05 12:17:15;;;;;;;;;;;;;;;27.66;42.65;97841.45;614230;230;62929;-67
2022/12/05 12:19:48;;;;;;;;;;;;;;;27.66;44.35;97854.13;613763;229;66603;-66
2022/12/05 12:22:32;;;;;;;;;;;;;;;27.66;44.46;97848.72;608482;231;68811;-66
2022/12/05 12:25:02;;;;;;;;;;;;;;;27.64;43.59;97846.33;609086;232;62972;-65
2022/12/05 12:27:34;;;;;;;;;;;;;;;27.63;43.24;97843.91;610601;231;68840;-65
2022/12/05 12:30:12;;;;;;;;;;;;;;;27.61;43.11;97840.70;612538;231;66625;-65
2022/12/05 12:32:50;;;;;;;;;;;;;;;27.60;41.71;97839.91;612833;231;64980;-65
2022/12/05 12:35:19;;;;;;;;;;;;;;;27.58;42.18;97831.31;612777;231;68961;-65
2022/12/05 12:37:54;;;;;;;;;;;;;;;27.58;43.55;97825.92;613413;231;66699;-65
2022/12/05 12:40:23;;;;;;;;;;;;;;;27.57;42.99;97826.20;613529;230;64841;-65
2022/12/05 12:42:54;;;;;;;;;;;;;;;27.55;43.38;97818.38;613614;230;66707;-65
2022/12/05 12:45:24;;;;;;;;;;;;;;;27.56;42.71;97820.00;613453;231;68754;-66
2022/12/05 12:47:53;;;;;;;;;;;;;;;27.54;43.00;97814.09;613669;231;65204;-65
2022/12/05 12:50:22;;;;;;;;;;;;;;;27.57;42.95;97815.40;613670;231;68816;-66
2022/12/05 12:53:00;;;;;;;;;;;;;;;27.55;44.42;97815.68;613674;231;68513;-65
2022/12/05 12:55:32;;;;;;;;;;;;;;;27.54;43.27;97811.39;613628;231;64999;-66
2022/12/05 12:58:01;;;;;;;;;;;;;;;27.54;42.17;97805.19;597708;235;66603;-66
2022/12/05 13:00:43;;;;;;;;;;;;;;;27.54;43.01;97819.48;609920;231;67004;-66
2022/12/05 13:03:12;;;;;;;;;;;;;;;27.52;42.42;97816.27;613683;231;62949;-66